FNCT Airport Information

Runway Information
Airport Frequencies
Airport Navaids
Airport Weather Information & NOTAM
ADDS - METARS form results

(2129 UTC 12 December 2018)
Data provider http://aviationweather.gov/metar/data/
 
Forecast for: FNCT
Text: TAF FNCT 121045Z 1212/1224 30010KT 9999 FEW025
Forecast period: 1200 to 1800 UTC 12 December 2018
Forecast type: FROM: standard forecast or significant change
Winds: from the WNW (300 degrees) at 12 MPH (10 knots; 5.1 m/s)
Visibility: 6 or more miles 10+ km)
Ceiling: at least 12,000 feet AGL
Clouds: few clouds at 2500 feet AGL
Weather: no significant weather forecast for this period
Text: TEMPO 1213/1218 FEW020 FEW023CB
Forecast period: 1300 to 1800 UTC 12 December 2018
Forecast type: TEMPORARY: The following changes expected for less than half the time period
Visibility: missing
Ceiling: at least 12,000 feet AGL
Clouds: few clouds at 2000 feet AGL
few clouds at 2300 feet AGL
Weather: no significant weather forecast for this period
Text: BECMG 1218/1221 24008KT
Forecast period: 1800 UTC 12 December 2018 to 0000 UTC 13 December 2018
Forecast type: BECOMING: Conditions expected to become as follows by 2100 UTC 12 December 2018
Winds: from the WSW (240 degrees) at 9 MPH (8 knots; 4.1 m/s)
Visibility: 6 or more miles 10+ km)
Ceiling: at least 12,000 feet AGL
Clouds: few clouds at 2500 feet AGL
Weather: no significant weather forecast for this period